UNTT/TOF METAR and TAF weather

Enter ICAO airport designator
Station Type Date Time Source
UNTT METAR 2020/05/26 05:00 UTC NOAA

UNTT 260500Z 06004MPS 020V110 9999 SCT011CB 15/15 Q1010 R21/190055 NOSIG RMK QFE742


Station Type Date Time Source
UNTT Decoded METAR 2020/05/26 05:00 UTC NOAA

Station name not available
May 26, 2020 - 01:00 AM EDT / 2020.05.26 0500 UTC
Wind: from the ENE (060 degrees) at 9 MPH (8 KT) (direction variable):0
Visibility: greater than 7 mile(s):0
Sky conditions: partly cloudy
Weather: Cumulonimbus clouds observed
Temperature: 59 F (15 C)
Dew Point: 59 F (15 C)
Relative Humidity: 100%
Pressure (altimeter): 29.83 in. Hg (1010 hPa)
ob: UNTT 260500Z 06004MPS 020V110 9999 SCT011CB 15/15 Q1010 R21/190055 NOSIG RMK QFE742
cycle: 5

Station Type Date Time Source
UNTT TAF UTC NOAA

Error!

Example: see airport list